Time;durP1;ratioP1;P1;durP2;ratioP2;P2;SDS_P1;SDS_P2;PMS_P1;PMS_P2;Temp;Humidity;BMP_temperature;BMP_pressure;BME280_temperature;BME280_humidity;BME280_pressure;Samples;Min_cycle;Max_cycle;Signal;HPM_P1;HPM_P2
2023/10/29 00:02:24;;;;;;;18.60;6.10;;;;;;;8.14;63.89;100732.11;107571;1251;98408;-60
2023/10/29 00:04:53;;;;;;;17.00;6.60;;;;;;;8.08;63.84;100734.57;107604;1251;112270;-59
2023/10/29 00:07:21;;;;;;;20.80;6.10;;;;;;;8.05;63.86;100739.49;107595;1251;109201;-59
2023/10/29 00:09:49;;;;;;;15.20;6.20;;;;;;;8.05;63.89;100737.17;107575;1251;108503;-58
2023/10/29 00:12:18;;;;;;;13.60;4.80;;;;;;;8.08;63.86;100733.16;107580;1251;97937;-60
2023/10/29 00:14:46;;;;;;;13.30;5.70;;;;;;;8.13;63.98;100735.61;107629;1251;97839;-61
2023/10/29 00:17:16;;;;;;;18.00;6.40;;;;;;;8.20;64.20;100737.60;107609;1252;111977;-59
2023/10/29 00:19:44;;;;;;;12.50;6.20;;;;;;;8.27;64.06;100738.84;107637;1253;109277;-59
2023/10/29 00:22:13;;;;;;;22.90;5.30;;;;;;;8.30;63.95;100734.11;107574;1251;107807;-59
2023/10/29 00:24:41;;;;;;;12.90;5.30;;;;;;;8.33;63.94;100729.80;107541;1251;97864;-58
2023/10/29 00:27:09;;;;;;;16.40;6.40;;;;;;;8.34;63.86;100727.20;107593;1251;97821;-59
2023/10/29 00:29:38;;;;;;;17.00;5.50;;;;;;;8.35;63.82;100725.50;107426;1253;110861;-59
2023/10/29 00:32:08;;;;;;;14.30;5.60;;;;;;;8.35;63.72;100726.39;107600;1253;109196;-60
2023/10/29 00:34:36;;;;;;;15.40;6.50;;;;;;;8.35;63.72;100729.96;107570;1255;107097;-59
2023/10/29 00:37:04;;;;;;;20.40;6.10;;;;;;;8.34;63.53;100730.93;107583;1252;97924;-61
2023/10/29 00:39:32;;;;;;;21.30;7.30;;;;;;;8.30;63.44;100735.86;107586;1251;97926;-59
2023/10/29 00:42:01;;;;;;;25.90;7.00;;;;;;;8.30;63.48;100740.50;107617;1253;112312;-58
2023/10/29 00:44:29;;;;;;;20.40;7.90;;;;;;;8.33;63.41;100749.08;107629;1253;109739;-59
2023/10/29 00:46:58;;;;;;;18.60;8.10;;;;;;;8.34;63.40;100750.80;107477;1253;108615;-60
2023/10/29 00:49:26;;;;;;;18.90;7.90;;;;;;;8.37;63.50;100758.26;107396;1252;97845;-59
2023/10/29 00:51:55;;;;;;;20.10;7.00;;;;;;;8.40;63.49;100754.60;107619;1251;97822;-59
2023/10/29 00:54:23;;;;;;;20.20;8.10;;;;;;;8.40;63.23;100746.87;107588;1251;111758;-59
2023/10/29 00:56:53;;;;;;;19.30;7.60;;;;;;;8.40;63.06;100753.89;107609;1251;107767;-58
2023/10/29 00:59:23;;;;;;;25.60;6.80;;;;;;;8.37;63.10;100755.40;107648;1253;105745;-59
2023/10/29 01:01:53;;;;;;;24.80;8.30;;;;;;;8.28;62.89;100750.84;107601;1252;97961;-59
2023/10/29 01:04:21;;;;;;;30.40;8.90;;;;;;;8.25;62.85;100752.94;107623;1252;99552;-59
2023/10/29 01:06:49;;;;;;;18.90;7.90;;;;;;;8.21;62.85;100752.13;107664;1253;111386;-59
2023/10/29 01:09:18;;;;;;;18.00;7.80;;;;;;;8.19;62.94;100754.25;107616;1252;108686;-59
2023/10/29 01:11:46;;;;;;;22.60;7.90;;;;;;;8.16;62.71;100753.59;107652;1253;106395;-60
2023/10/29 01:14:15;;;;;;;20.90;8.50;;;;;;;8.13;62.70;100757.76;107414;1253;97826;-58
2023/10/29 01:16:43;;;;;;;17.00;8.60;;;;;;;8.08;62.56;100764.42;107582;1253;97710;-59
2023/10/29 01:19:12;;;;;;;20.20;8.10;;;;;;;8.02;62.63;100757.20;107628;1253;111598;-61
2023/10/29 01:21:40;;;;;;;28.00;8.60;;;;;;;7.97;62.44;100766.33;107600;1255;108692;-58
2023/10/29 01:24:09;;;;;;;24.40;7.80;;;;;;;7.93;62.52;100771.45;107616;1255;108724;-59
2023/10/29 01:26:37;;;;;;;21.60;7.60;;;;;;;7.89;62.41;100766.98;107611;1251;97893;-58
2023/10/29 01:29:05;;;;;;;22.50;8.80;;;;;;;7.81;62.44;100769.55;107590;1251;98347;-58
2023/10/29 01:31:33;;;;;;;23.40;8.80;;;;;;;7.74;62.53;100767.23;107624;1253;112167;-58
2023/10/29 01:34:01;;;;;;;18.00;8.10;;;;;;;7.67;62.47;100760.44;107620;1253;109880;-60
2023/10/29 01:36:30;;;;;;;20.10;8.60;;;;;;;7.60;62.51;100762.58;107576;1251;108111;-58
2023/10/29 01:38:58;;;;;;;22.10;8.50;;;;;;;7.53;62.93;100766.25;107508;1257;97842;-59
2023/10/29 01:41:27;;;;;;;29.10;8.80;;;;;;;7.45;63.40;100775.80;107492;1256;97911;-59
2023/10/29 01:43:55;;;;;;;20.60;6.90;;;;;;;7.37;63.14;100786.23;107450;1256;112233;-62
2023/10/29 01:46:24;;;;;;;15.50;7.20;;;;;;;7.32;63.27;100790.36;107620;1253;109728;-59
2023/10/29 01:48:52;;;;;;;16.90;7.20;;;;;;;7.29;63.37;100800.89;107576;1252;107343;-58
2023/10/29 01:51:21;;;;;;;20.10;7.20;;;;;;;7.29;63.36;100802.70;107602;1255;97838;-60
2023/10/29 01:53:49;;;;;;;19.80;7.20;;;;;;;7.29;63.48;100810.38;107602;1253;98529;-58
2023/10/29 01:56:18;;;;;;;19.40;7.10;;;;;;;7.29;63.64;100807.17;107590;1254;110481;-60
2023/10/29 01:58:46;;;;;;;17.90;7.00;;;;;;;7.28;64.16;100807.93;107459;1252;109735;-58
2023/10/29 02:01:14;;;;;;;19.30;6.40;;;;;;;7.31;64.02;100804.89;107416;1252;108368;-59
2023/10/29 02:03:42;;;;;;;14.00;6.00;;;;;;;7.33;64.33;100805.08;107456;1253;97977;-59
2023/10/29 02:06:18;;;;;;;18.10;6.30;;;;;;;7.35;64.57;100806.67;107720;1249;97681;-58
2023/10/29 02:08:46;;;;;;;16.50;7.60;;;;;;;7.37;64.54;100807.13;107598;1251;111255;-60
2023/10/29 02:11:15;;;;;;;17.20;6.80;;;;;;;7.40;64.81;100806.52;107573;1251;111084;-60
2023/10/29 02:13:44;;;;;;;13.10;6.30;;;;;;;7.43;64.88;100818.83;107602;1251;109365;-59
2023/10/29 02:16:12;;;;;;;17.80;6.30;;;;;;;7.42;64.86;100827.41;107557;1250;97819;-60
2023/10/29 02:18:40;;;;;;;13.50;6.20;;;;;;;7.42;65.08;100823.47;107585;1255;98340;-58
2023/10/29 02:21:08;;;;;;;12.40;6.20;;;;;;;7.43;64.99;100831.99;107539;1250;111020;-59
2023/10/29 02:23:37;;;;;;;20.10;6.60;;;;;;;7.44;65.30;100838.35;107598;1251;109797;-60
2023/10/29 02:26:05;;;;;;;24.10;6.80;;;;;;;7.45;65.33;100841.63;107581;1251;108436;-59
2023/10/29 02:28:33;;;;;;;18.30;6.20;;;;;;;7.47;65.32;100848.46;107633;1254;97975;-59
2023/10/29 02:31:01;;;;;;;17.00;6.00;;;;;;;7.49;65.20;100853.11;107635;1253;97848;-60
2023/10/29 02:33:30;;;;;;;13.60;5.10;;;;;;;7.49;65.26;100862.45;107639;1251;111976;-60
2023/10/29 02:35:59;;;;;;;17.50;6.00;;;;;;;7.47;65.26;100861.29;107566;1253;110376;-58
2023/10/29 02:38:27;;;;;;;17.00;5.60;;;;;;;7.46;65.18;100861.06;107600;1252;107529;-58
2023/10/29 02:40:55;;;;;;;13.90;4.70;;;;;;;7.45;65.22;100863.97;107628;1253;98550;-60
2023/10/29 02:43:23;;;;;;;14.90;5.70;;;;;;;7.44;65.17;100864.90;107445;1251;97885;-60
2023/10/29 02:45:51;;;;;;;15.20;5.00;;;;;;;7.46;65.61;100864.79;107650;1251;111314;-60
2023/10/29 02:48:21;;;;;;;12.00;4.70;;;;;;;7.47;65.40;100864.89;107583;1251;109289;-59
2023/10/29 02:50:49;;;;;;;18.00;5.30;;;;;;;7.47;65.53;100867.04;107612;1251;108033;-59
2023/10/29 02:53:18;;;;;;;14.90;4.50;;;;;;;7.46;65.68;100871.77;107566;1253;97891;-58
2023/10/29 02:55:47;;;;;;;12.20;4.60;;;;;;;7.45;65.82;100875.92;107601;1253;97734;-59
2023/10/29 02:58:15;;;;;;;13.40;4.90;;;;;;;7.47;65.81;100882.20;107542;1257;112877;-59
2023/10/29 03:00:44;;;;;;;13.00;4.60;;;;;;;7.46;66.31;100880.31;107604;1253;109477;-59
2023/10/29 03:03:12;;;;;;;23.80;4.90;;;;;;;7.40;66.33;100885.23;107518;1251;107733;-59
2023/10/29 03:05:41;;;;;;;16.70;5.70;;;;;;;7.35;66.64;100884.28;107620;1251;98405;-58
2023/10/29 03:08:24;;;;;;;9.00;4.40;;;;;;;7.33;66.71;100881.44;107598;1251;97741;-60
2023/10/29 03:10:52;;;;;;;16.20;4.50;;;;;;;7.31;66.98;100881.20;107591;1251;111560;-59
2023/10/29 03:13:20;;;;;;;13.40;4.40;;;;;;;7.32;67.36;100880.27;107607;1252;109896;-60
2023/10/29 03:15:49;;;;;;;14.40;4.60;;;;;;;7.32;67.03;100879.55;107627;1252;108216;-58
2023/10/29 03:18:18;;;;;;;8.60;4.00;;;;;;;7.33;66.95;100881.45;107422;1257;97992;-59
2023/10/29 03:20:46;;;;;;;10.90;4.10;;;;;;;7.34;67.15;100874.94;107509;1253;97726;-59
2023/10/29 03:23:14;;;;;;;12.00;4.30;;;;;;;7.37;67.24;100875.10;107622;1256;112084;-59
2023/10/29 03:25:44;;;;;;;12.30;4.10;;;;;;;7.39;67.05;100870.33;107607;1251;109259;-57
2023/10/29 03:28:13;;;;;;;11.90;4.00;;;;;;;7.40;67.36;100883.95;107478;1251;108283;-58
2023/10/29 03:30:41;;;;;;;12.30;4.00;;;;;;;7.41;67.42;100889.98;107623;1251;97811;-60
2023/10/29 03:33:09;;;;;;;12.00;3.90;;;;;;;7.39;67.50;100895.83;107589;1252;97824;-60
2023/10/29 03:35:38;;;;;;;22.20;4.10;;;;;;;7.36;67.33;100891.41;107607;1253;110804;-59
2023/10/29 03:38:07;;;;;;;12.00;5.00;;;;;;;7.33;67.26;100887.66;107588;1253;110059;-58
2023/10/29 03:40:37;;;;;;;11.20;4.00;;;;;;;7.32;67.42;100885.39;107618;1250;107564;-58
2023/10/29 03:43:05;;;;;;;11.60;4.30;;;;;;;7.34;67.37;100887.96;107501;1250;97843;-57
2023/10/29 03:45:33;;;;;;;7.80;3.60;;;;;;;7.38;67.68;100895.04;107571;1252;97730;-58
2023/10/29 03:48:02;;;;;;;8.60;4.10;;;;;;;7.40;67.44;100890.17;107665;1251;111888;-59
2023/10/29 03:50:30;;;;;;;10.80;4.00;;;;;;;7.40;67.51;100890.02;107638;1251;109900;-61
2023/10/29 03:52:58;;;;;;;13.80;3.60;;;;;;;7.38;67.33;100893.38;107523;1253;107626;-59
2023/10/29 03:55:27;;;;;;;8.20;3.90;;;;;;;7.37;67.37;100892.77;107559;1252;97934;-58
2023/10/29 03:57:55;;;;;;;12.90;4.10;;;;;;;7.37;67.56;100899.19;107525;1252;98391;-61
2023/10/29 04:00:23;;;;;;;9.00;4.00;;;;;;;7.35;67.22;100900.40;107552;1252;110874;-59
2023/10/29 04:02:51;;;;;;;17.10;3.90;;;;;;;7.32;67.29;100906.27;107656;1251;109683;-59
2023/10/29 04:05:20;;;;;;;7.40;3.80;;;;;;;7.29;67.17;100915.98;107570;1250;107399;-60
2023/10/29 04:07:48;;;;;;;15.10;4.20;;;;;;;7.27;67.10;100921.00;107594;1251;97963;-60
2023/10/29 04:10:16;;;;;;;11.70;4.50;;;;;;;7.21;66.75;100925.28;107585;1251;97824;-59
2023/10/29 04:12:45;;;;;;;14.00;4.50;;;;;;;7.14;66.69;100919.55;107608;1255;111193;-58
2023/10/29 04:15:13;;;;;;;9.30;3.90;;;;;;;7.06;66.62;100920.27;107537;1251;109090;-58
2023/10/29 04:17:42;;;;;;;9.40;4.30;;;;;;;7.01;66.76;100920.66;107631;1253;107974;-58
2023/10/29 04:20:11;;;;;;;13.40;4.50;;;;;;;6.96;66.62;100911.56;107611;1253;97914;-60
2023/10/29 04:22:42;;;;;;;8.20;4.10;;;;;;;6.92;66.63;100907.75;107595;1253;97712;-60
2023/10/29 04:25:10;;;;;;;11.00;4.80;;;;;;;6.88;66.74;100915.50;107638;1253;110558;-60
2023/10/29 04:27:38;;;;;;;8.80;4.20;;;;;;;6.83;66.87;100923.12;107566;1253;109990;-59
2023/10/29 04:30:07;;;;;;;14.10;4.60;;;;;;;6.79;67.20;100924.66;107563;1251;108643;-59
2023/10/29 04:32:36;;;;;;;10.20;4.30;;;;;;;6.76;66.94;100922.41;107635;1253;97866;-60
2023/10/29 04:35:05;;;;;;;28.50;10.60;;;;;;;6.71;66.71;100927.18;107611;1252;97826;-60
2023/10/29 04:37:33;;;;;;;11.30;5.00;;;;;;;6.65;67.11;100936.16;107657;1251;112229;-60
2023/10/29 04:40:03;;;;;;;8.90;4.80;;;;;;;6.59;66.89;100937.13;107604;1253;109611;-59
2023/10/29 04:42:31;;;;;;;15.40;4.30;;;;;;;6.54;66.93;100935.89;107651;1251;107524;-60
2023/10/29 04:44:59;;;;;;;9.20;4.40;;;;;;;6.48;67.10;100934.33;107649;1251;97934;-59
2023/10/29 04:47:28;;;;;;;10.90;4.50;;;;;;;6.43;67.14;100940.73;107619;1251;97744;-60
2023/10/29 04:49:56;;;;;;;8.00;4.10;;;;;;;6.38;67.33;100938.88;107658;1253;112097;-59
2023/10/29 04:52:24;;;;;;;8.90;4.10;;;;;;;6.38;67.53;100941.94;107644;1251;110725;-60
2023/10/29 04:54:53;;;;;;;5.50;3.60;;;;;;;6.37;67.66;100950.17;107616;1251;108835;-59
2023/10/29 04:57:21;;;;;;;10.10;3.50;;;;;;;6.37;68.11;100955.69;107542;1252;97820;-59
2023/10/29 04:59:49;;;;;;;8.60;4.00;;;;;;;6.38;68.08;100957.58;107571;1253;97819;-60
2023/10/29 05:02:18;;;;;;;10.30;3.80;;;;;;;6.41;68.30;100959.74;107566;1251;111351;-59
2023/10/29 05:04:49;;;;;;;12.40;3.50;;;;;;;6.41;68.14;100961.67;107541;1252;109721;-58
2023/10/29 05:07:18;;;;;;;8.80;4.30;;;;;;;6.41;68.30;100968.61;107538;1254;107278;-59
2023/10/29 05:09:46;;;;;;;8.60;3.20;;;;;;;6.45;68.13;100973.75;107628;1251;97845;-59
2023/10/29 05:12:15;;;;;;;7.90;3.70;;;;;;;6.48;68.51;100979.39;107544;1254;97729;-58
2023/10/29 05:14:43;;;;;;;9.80;3.80;;;;;;;6.52;68.48;100985.48;107579;1252;111303;-58
2023/10/29 05:17:12;;;;;;;10.30;4.20;;;;;;;6.59;68.71;100985.61;107575;1251;109072;-62
2023/10/29 05:19:40;;;;;;;10.10;3.90;;;;;;;6.65;68.69;100988.40;107532;1250;107562;-60
2023/10/29 05:22:08;;;;;;;13.30;3.70;;;;;;;6.70;68.84;100991.22;107565;1253;97828;-60
2023/10/29 05:24:36;;;;;;;10.90;3.80;;;;;;;6.76;68.97;100997.99;107614;1256;97716;-59
2023/10/29 05:27:04;;;;;;;7.60;3.90;;;;;;;6.81;68.73;101001.56;107581;1251;110957;-61
2023/10/29 05:29:33;;;;;;;11.10;3.20;;;;;;;6.86;69.00;101008.30;107573;1251;109563;-57
2023/10/29 05:32:02;;;;;;;7.40;3.30;;;;;;;6.94;68.98;101006.60;107616;1251;108440;-57
2023/10/29 05:34:31;;;;;;;9.20;3.50;;;;;;;6.99;68.76;101006.34;107533;1251;97919;-58
2023/10/29 05:36:59;;;;;;;6.80;3.20;;;;;;;7.07;69.01;101008.52;107583;1251;99582;-59
2023/10/29 05:39:27;;;;;;;10.40;3.50;;;;;;;7.15;68.97;101013.29;107597;1251;111205;-59
2023/10/29 05:41:55;;;;;;;5.50;3.50;;;;;;;7.24;68.96;101012.88;107567;1254;108218;-59
2023/10/29 05:44:24;;;;;;;6.90;3.50;;;;;;;7.32;68.90;101014.45;107539;1251;107602;-61
2023/10/29 05:46:52;;;;;;;11.10;4.30;;;;;;;7.40;68.77;101017.40;107576;1251;97718;-58
2023/10/29 05:49:20;;;;;;;10.30;4.10;;;;;;;7.49;68.73;101024.66;107533;1251;98331;-58
2023/10/29 05:51:49;;;;;;;8.50;4.90;;;;;;;7.58;68.70;101032.74;107592;1255;111092;-59
2023/10/29 05:54:18;;;;;;;11.70;4.40;;;;;;;7.66;68.59;101028.94;107589;1251;108994;-59
2023/10/29 05:56:47;;;;;;;13.20;4.80;;;;;;;7.75;68.59;101033.16;107579;1251;107974;-61
2023/10/29 05:59:16;;;;;;;11.70;5.20;;;;;;;7.81;68.37;101037.48;107541;1251;97825;-59
2023/10/29 06:01:44;;;;;;;18.80;7.30;;;;;;;7.87;68.22;101041.59;107509;1253;97914;-59
2023/10/29 06:04:12;;;;;;;35.80;13.40;;;;;;;7.91;68.10;101053.05;107579;1251;111028;-59
2023/10/29 06:06:41;;;;;;;27.20;15.60;;;;;;;7.95;68.09;101054.88;107594;1252;109990;-59
2023/10/29 06:09:09;;;;;;;24.70;10.60;;;;;;;7.99;67.89;101056.73;107537;1254;109818;-60
2023/10/29 06:11:52;;;;;;;24.70;9.10;;;;;;;8.04;67.63;101058.73;107639;1253;97937;-59
2023/10/29 06:14:22;;;;;;;20.00;7.30;;;;;;;8.06;67.58;101059.67;107602;1253;98330;-58
2023/10/29 06:16:56;;;;;;;19.90;7.90;;;;;;;8.08;67.34;101061.13;107591;1254;111865;-59
2023/10/29 06:19:36;;;;;;;21.80;7.40;;;;;;;8.10;67.23;101058.42;107691;1254;108115;-59
2023/10/29 06:22:06;;;;;;;23.40;8.80;;;;;;;8.13;67.06;101058.07;107588;1256;107954;-60
2023/10/29 06:24:34;;;;;;;20.00;8.60;;;;;;;8.17;66.83;101062.95;107601;1252;97883;-61
2023/10/29 06:27:03;;;;;;;20.90;7.90;;;;;;;8.22;67.00;101064.73;107583;1251;97848;-61
2023/10/29 06:29:31;;;;;;;24.80;9.20;;;;;;;8.31;67.04;101068.72;107598;1255;111465;-60
2023/10/29 06:32:00;;;;;;;38.20;14.40;;;;;;;8.42;67.01;101070.23;107607;1254;108973;-60
2023/10/29 06:34:28;;;;;;;21.00;9.40;;;;;;;8.54;67.05;101070.83;107598;1253;106878;-59
2023/10/29 06:36:56;;;;;;;18.60;8.40;;;;;;;8.65;66.82;101065.53;107591;1251;97685;-59
2023/10/29 06:39:24;;;;;;;25.60;7.70;;;;;;;8.76;66.70;101068.95;107494;1253;98459;-59
2023/10/29 06:41:53;;;;;;;25.50;9.20;;;;;;;8.87;66.74;101078.33;107604;1254;110677;-61
2023/10/29 06:44:21;;;;;;;19.50;6.80;;;;;;;8.98;66.68;101081.80;107608;1256;109736;-59
2023/10/29 06:46:50;;;;;;;35.30;7.10;;;;;;;9.07;66.63;101082.48;107612;1254;107327;-58
2023/10/29 06:49:19;;;;;;;27.70;8.10;;;;;;;9.15;66.48;101079.95;107525;1254;97835;-58
2023/10/29 06:51:48;;;;;;;25.40;7.50;;;;;;;9.22;66.57;101080.08;107541;1254;97718;-60
2023/10/29 06:54:17;;;;;;;32.00;7.40;;;;;;;9.30;66.51;101074.30;107540;1254;111929;-58
2023/10/29 06:56:45;;;;;;;18.80;7.70;;;;;;;9.40;66.47;101071.56;107577;1254;109887;-60
2023/10/29 06:59:14;;;;;;;27.30;7.70;;;;;;;9.50;66.52;101075.44;107573;1252;108340;-61
2023/10/29 07:01:42;;;;;;;24.70;8.30;;;;;;;9.58;66.56;101080.53;107519;1253;97932;-59
2023/10/29 07:04:10;;;;;;;32.60;7.70;;;;;;;9.68;66.89;101080.23;107550;1255;97980;-59
2023/10/29 07:06:39;;;;;;;25.90;8.50;;;;;;;9.83;66.71;101079.63;107530;1253;111529;-59
2023/10/29 07:09:11;;;;;;;29.40;8.40;;;;;;;9.97;66.92;101076.52;107561;1253;109624;-59
2023/10/29 07:11:40;;;;;;;24.50;7.40;;;;;;;10.12;66.72;101074.09;107579;1252;107704;-59
2023/10/29 07:14:09;;;;;;;19.80;7.50;;;;;;;10.28;66.46;101070.46;107613;1251;97908;-58
2023/10/29 07:16:44;;;;;;;23.90;7.30;;;;;;;10.47;66.38;101078.41;107594;1251;98460;-57
2023/10/29 07:19:13;;;;;;;21.00;7.30;;;;;;;10.66;66.32;101090.45;107571;1253;110800;-58
2023/10/29 07:21:41;;;;;;;14.20;6.50;;;;;;;10.84;66.12;101083.56;107565;1251;108762;-60
2023/10/29 07:24:09;;;;;;;22.30;7.20;;;;;;;11.03;66.02;101081.27;107635;1251;107692;-59
2023/10/29 07:26:37;;;;;;;23.00;7.50;;;;;;;11.20;65.66;101080.88;107557;1251;97716;-58
2023/10/29 07:29:06;;;;;;;20.60;8.20;;;;;;;11.37;65.35;101083.40;107624;1253;98347;-59
2023/10/29 07:31:34;;;;;;;22.70;10.30;;;;;;;11.52;65.04;101090.48;107562;1253;111511;-59
2023/10/29 07:34:03;;;;;;;26.90;8.70;;;;;;;11.67;64.83;101093.98;107562;1252;109589;-59
2023/10/29 07:36:31;;;;;;;21.40;9.00;;;;;;;11.83;64.45;101094.84;107505;1253;108423;-60
2023/10/29 07:38:59;;;;;;;21.50;9.10;;;;;;;11.98;63.90;101100.89;107537;1251;97851;-59
2023/10/29 07:41:28;;;;;;;31.10;9.20;;;;;;;12.13;63.62;101103.67;107600;1251;97743;-60
2023/10/29 07:43:56;;;;;;;23.00;9.70;;;;;;;12.29;63.31;101100.81;107626;1251;111448;-62
2023/10/29 07:46:24;;;;;;;25.10;11.00;;;;;;;12.45;62.88;101104.35;107626;1253;110159;-60
2023/10/29 07:48:52;;;;;;;27.50;10.60;;;;;;;12.61;62.35;101095.86;107591;1254;107348;-60
2023/10/29 07:51:21;;;;;;;26.50;11.30;;;;;;;12.78;61.96;101094.67;107570;1251;97845;-60
2023/10/29 07:53:50;;;;;;;28.20;12.70;;;;;;;12.95;61.36;101088.80;107587;1253;97842;-60
2023/10/29 07:56:20;;;;;;;30.30;11.10;;;;;;;13.10;60.41;101085.66;107542;1254;111435;-59
2023/10/29 07:58:49;;;;;;;26.30;11.60;;;;;;;13.25;60.22;101086.96;107589;1253;110225;-60
2023/10/29 08:01:17;;;;;;;27.10;11.70;;;;;;;13.40;59.71;101086.23;107506;1252;109492;-60
2023/10/29 08:03:48;;;;;;;30.20;11.90;;;;;;;13.55;59.61;101089.66;107577;1253;97711;-61
2023/10/29 08:06:17;;;;;;;24.00;9.80;;;;;;;13.72;59.46;101105.77;107613;1252;97694;-59
2023/10/29 08:08:45;;;;;;;31.80;9.00;;;;;;;13.88;59.12;101110.64;107592;1253;111538;-59
2023/10/29 08:11:20;;;;;;;21.70;9.80;;;;;;;14.07;58.99;101115.16;107616;1256;109204;-60
2023/10/29 08:13:50;;;;;;;26.60;9.80;;;;;;;14.28;58.52;101109.44;107591;1253;106663;-60
2023/10/29 08:16:18;;;;;;;26.90;8.80;;;;;;;14.51;58.08;101106.65;107583;1252;97839;-59
2023/10/29 08:18:47;;;;;;;42.00;10.40;;;;;;;14.77;57.10;101108.30;107540;1253;97702;-59
2023/10/29 08:21:17;;;;;;;33.30;12.90;;;;;;;15.01;57.12;101104.91;107608;1253;111526;-60
2023/10/29 08:23:45;;;;;;;29.90;12.40;;;;;;;15.27;56.81;101101.91;107563;1253;109331;-60
2023/10/29 08:26:14;;;;;;;17.30;7.80;;;;;;;15.54;55.64;101101.52;107603;1255;107786;-61
2023/10/29 08:28:42;;;;;;;20.40;7.00;;;;;;;15.80;54.84;101099.13;107559;1256;97908;-60
2023/10/29 08:31:10;;;;;;;15.60;6.70;;;;;;;16.08;54.85;101103.27;107544;1253;98411;-60
2023/10/29 08:33:39;;;;;;;19.50;6.80;;;;;;;16.38;54.33;101106.98;107543;1254;110665;-59
2023/10/29 08:36:07;;;;;;;12.80;6.20;;;;;;;16.69;53.50;101104.70;107544;1252;111758;-59
2023/10/29 08:38:36;;;;;;;15.70;6.60;;;;;;;16.98;52.41;101105.02;107525;1252;107979;-59
2023/10/29 08:41:17;;;;;;;16.60;5.80;;;;;;;17.27;51.68;101107.94;107500;1253;98017;-59
2023/10/29 08:43:45;;;;;;;20.70;6.00;;;;;;;17.61;49.91;101108.50;107648;1253;97842;-59
2023/10/29 08:46:14;;;;;;;12.50;5.10;;;;;;;17.99;50.28;101111.44;107626;1253;112320;-59
2023/10/29 08:48:43;;;;;;;17.10;4.50;;;;;;;18.56;49.07;101109.93;107608;1254;108543;-59
2023/10/29 08:51:14;;;;;;;13.30;4.00;;;;;;;19.44;48.43;101112.14;107517;1253;107639;-60
2023/10/29 08:53:43;;;;;;;13.30;3.90;;;;;;;20.42;46.63;101114.69;107514;1253;97820;-59
2023/10/29 08:56:11;;;;;;;11.20;4.60;;;;;;;21.32;45.89;101118.86;107548;1253;98389;-59
2023/10/29 08:58:40;;;;;;;10.90;3.70;;;;;;;22.19;44.81;101120.27;107600;1251;111795;-60
2023/10/29 09:01:12;;;;;;;9.70;3.90;;;;;;;22.96;42.93;101117.71;107534;1255;109506;-60
2023/10/29 09:03:40;;;;;;;8.40;3.90;;;;;;;23.82;42.61;101119.06;107600;1251;106869;-59
2023/10/29 09:06:10;;;;;;;12.00;3.60;;;;;;;24.53;39.43;101118.45;107574;1251;98547;-59
2023/10/29 09:08:39;;;;;;;16.10;3.50;;;;;;;25.09;39.09;101121.41;107566;1253;97815;-60
2023/10/29 09:11:13;;;;;;;9.70;3.00;;;;;;;25.78;39.23;101123.21;107510;1253;112007;-60
2023/10/29 09:13:41;;;;;;;7.40;3.20;;;;;;;26.50;37.01;101126.33;107569;1253;109010;-60
2023/10/29 09:16:09;;;;;;;22.60;3.10;;;;;;;26.98;35.52;101123.85;107562;1252;107290;-60
2023/10/29 09:18:38;;;;;;;13.30;3.80;;;;;;;27.40;35.66;101126.48;107517;1254;97778;-61
2023/10/29 09:21:06;;;;;;;13.90;3.60;;;;;;;27.95;35.47;101125.77;107553;1254;97730;-60
2023/10/29 09:23:35;;;;;;;9.50;2.50;;;;;;;28.56;33.69;101120.68;107632;1253;110676;-61
2023/10/29 09:26:04;;;;;;;6.60;1.80;;;;;;;28.99;30.93;101119.02;107577;1251;109615;-61
2023/10/29 09:28:33;;;;;;;15.80;2.50;;;;;;;29.44;31.55;101116.23;107645;1256;105923;-60
2023/10/29 09:31:03;;;;;;;4.70;1.50;;;;;;;29.90;30.60;101111.23;107589;1256;97859;-60
2023/10/29 09:33:31;;;;;;;2.80;1.60;;;;;;;30.26;28.72;101107.11;107559;1253;97838;-62
2023/10/29 09:36:00;;;;;;;6.40;1.50;;;;;;;30.38;26.78;101108.69;107475;1253;111269;-60
2023/10/29 09:38:28;;;;;;;4.70;1.50;;;;;;;30.57;27.21;101107.11;107548;1254;109570;-60
2023/10/29 09:40:57;;;;;;;3.40;1.10;;;;;;;31.01;27.04;101104.16;107524;1255;108292;-61
2023/10/29 09:43:30;;;;;;;5.00;1.10;;;;;;;31.31;26.59;101104.96;107517;1252;97822;-62
2023/10/29 09:46:04;;;;;;;4.60;1.20;;;;;;;31.67;24.75;101098.48;107567;1253;97726;-60
2023/10/29 09:48:33;;;;;;;7.40;1.00;;;;;;;31.55;23.93;101098.77;107554;1253;112183;-59
2023/10/29 09:51:05;;;;;;;2.80;1.10;;;;;;;31.85;24.90;101097.83;107552;1253;109741;-60
2023/10/29 09:53:36;;;;;;;2.90;1.30;;;;;;;31.96;22.81;101099.88;107561;1253;107845;-60
2023/10/29 09:56:08;;;;;;;3.50;0.90;;;;;;;31.57;23.12;101102.56;107511;1253;97907;-60
2023/10/29 09:58:37;;;;;;;7.00;1.00;;;;;;;31.76;23.78;101104.98;107546;1253;97715;-61
2023/10/29 10:01:05;;;;;;;7.70;1.90;;;;;;;32.11;24.28;101098.09;107589;1255;111350;-60
2023/10/29 10:03:33;;;;;;;1.80;0.80;;;;;;;32.47;22.77;101098.65;107657;1251;108730;-59
2023/10/29 10:06:03;;;;;;;1.00;0.70;;;;;;;32.48;21.78;101099.70;107624;1253;108131;-59
2023/10/29 10:08:33;;;;;;;2.30;1.00;;;;;;;32.70;22.62;101094.82;107646;1253;97836;-62
2023/10/29 10:11:02;;;;;;;2.00;0.80;;;;;;;32.94;21.96;101092.35;107201;1255;456263;-62
2023/10/29 10:13:41;;;;;;;1.40;0.80;;;;;;;33.19;21.88;101093.77;107401;1253;111884;-61
2023/10/29 10:16:15;;;;;;;1.40;0.80;;;;;;;33.51;21.70;101094.39;107539;1254;109285;-62
2023/10/29 10:18:50;;;;;;;1.70;0.80;;;;;;;33.65;20.68;101093.84;107583;1256;107390;-62
2023/10/29 10:21:23;;;;;;;0.90;0.50;;;;;;;33.85;20.57;101092.99;107622;1255;97924;-61
2023/10/29 10:23:55;;;;;;;1.40;0.60;;;;;;;34.11;20.95;101090.57;107550;1255;97714;-61
2023/10/29 10:26:34;;;;;;;2.00;0.70;;;;;;;34.30;20.38;101084.60;107629;1251;111913;-60
2023/10/29 10:29:04;;;;;;;3.00;0.50;;;;;;;34.66;20.41;101085.48;107566;1255;110319;-61
2023/10/29 10:31:35;;;;;;;1.60;0.90;;;;;;;35.16;20.59;101081.58;107591;1254;108052;-60
2023/10/29 10:34:17;;;;;;;1.50;0.70;;;;;;;35.64;19.65;101080.92;107580;1254;97712;-61
2023/10/29 10:36:50;;;;;;;2.10;0.90;;;;;;;36.04;19.51;101079.58;107658;1256;97822;-61
2023/10/29 10:39:25;;;;;;;2.40;0.70;;;;;;;36.31;18.58;101080.35;107639;1251;111567;-61
2023/10/29 10:41:55;;;;;;;3.40;0.70;;;;;;;36.51;18.74;101076.55;107580;1251;108618;-62
2023/10/29 10:44:29;;;;;;;1.90;0.60;;;;;;;36.78;18.78;101068.69;107567;1251;108686;-62
2023/10/29 10:47:00;;;;;;;2.40;0.60;;;;;;;36.77;16.79;101073.43;107573;1256;97963;-60
2023/10/29 10:49:31;;;;;;;1.90;0.80;;;;;;;36.42;17.82;101072.59;107632;1253;97718;-61
2023/10/29 10:52:01;;;;;;;2.40;0.50;;;;;;;36.48;17.57;101068.48;107693;1251;111441;-62
2023/10/29 10:54:30;;;;;;;1.10;0.60;;;;;;;36.23;17.03;101078.18;107512;1253;110153;-61
2023/10/29 10:56:59;;;;;;;1.70;0.90;;;;;;;36.02;17.03;101069.64;107544;1256;108589;-61
2023/10/29 10:59:29;;;;;;;2.40;0.80;;;;;;;36.08;17.68;101071.63;107600;1254;97842;-62
2023/10/29 11:01:59;;;;;;;1.00;0.60;;;;;;;36.24;17.37;101070.61;107605;1251;98456;-61
2023/10/29 11:04:29;;;;;;;1.10;0.60;;;;;;;36.21;17.09;101066.61;107617;1254;112201;-63
2023/10/29 11:06:57;;;;;;;1.00;0.60;;;;;;;36.20;17.42;101065.02;107614;1254;109113;-62
2023/10/29 11:09:26;;;;;;;0.50;0.40;;;;;;;36.14;17.64;101065.84;107581;1255;107833;-61
2023/10/29 11:11:56;;;;;;;1.40;0.50;;;;;;;36.36;17.48;101067.63;107606;1251;97823;-62
2023/10/29 11:14:25;;;;;;;1.40;0.90;;;;;;;36.59;17.27;101062.30;107563;1251;97822;-61
2023/10/29 11:16:56;;;;;;;3.90;1.40;;;;;;;36.68;17.65;101058.23;107638;1251;112987;-62
2023/10/29 11:19:35;;;;;;;1.00;0.40;;;;;;;36.58;17.23;101058.28;107632;1256;108980;-61
2023/10/29 11:22:20;;;;;;;2.80;0.80;;;;;;;36.16;17.02;101053.26;107616;1255;108242;-60